This is the latest recevied weather packets stored in our database for station/object MB7UCW-13. If no packets are shown the sender has not sent any weather packets the latest 10 day(s).
| Time | Temp. | Humidity | Pressure | Rain* | Wind** | Luminosity | Snow |
|---|---|---|---|---|---|---|---|
| 1777770903 | 11.67° C | 94% | 1009.4 hPa | 2.29 mm | - | 0 W/m² | - |
| 1777768203 | 12.22° C | 94% | 1009.9 hPa | 3.81 mm | - | 0 W/m² | - |
| 1777755603 | 12.78° C | 89% | 1011.4 hPa | 1.27 mm | - | 0 W/m² | - |
| 1777750203 | 14.44° C | 83% | 1011.9 hPa | 0.25 mm | - | 0 W/m² | - |
| 1777730424 | 17.78° C | 59% | 1014.7 hPa | 0 mm | - | 320 W/m² | - |
| 1777725903 | 17.22° C | 62% | 1015.2 hPa | 0 mm | - | 294 W/m² | - |
| 1777724103 | 16.67° C | 65% | 1015.4 hPa | 0 mm | - | 896 W/m² | - |
| 1777713303 | 13.89° C | 80% | 1017.4 hPa | 0 mm | - | 253 W/m² | - |
| 1777701603 | 7.78° C | 95% | 1017.4 hPa | 0 mm | - | 54 W/m² | - |
| 1777700703 | 7.78° C | 95% | 1017.3 hPa | 0 mm | - | 47 W/m² | - |
| 1777699803 | 7.78° C | 96% | 1017.2 hPa | 0 mm | - | 58 W/m² | - |
| 1777698003 | 7.22° C | 95% | 1017.2 hPa | 0 mm | - | 16 W/m² | - |
| 1777696203 | 7.22° C | 95% | 1017.3 hPa | 0 mm | - | 0 W/m² | - |
| 1777694403 | 7.22° C | 95% | 1017.4 hPa | 0 mm | - | 0 W/m² | - |
| 1777688103 | 8.33° C | 95% | 1017.7 hPa | 0 mm | - | 0 W/m² | - |
| 1777682724 | 9.44° C | 95% | 1018.5 hPa | 0 mm | - | 0 W/m² | - |
| 1777679103 | 10.56° C | 94% | 1018.9 hPa | 0 mm | - | 0 W/m² | - |
| 1777676403 | 11.11° C | 94% | 1018.9 hPa | 0 mm | - | 0 W/m² | - |
| 1777675524 | 11.11° C | 94% | 1019 hPa | 0 mm | - | 0 W/m² | - |
| 1777674604 | 11.67° C | 94% | 1018.8 hPa | 0 mm | - | 0 W/m² | - |
| 1777673703 | 11.67° C | 94% | 1019 hPa | 0 mm | - | 0 W/m² | - |
| 1777671903 | 12.22° C | 94% | 1019 hPa | 0 mm | - | 0 W/m² | - |
| 1777671003 | 12.78° C | 94% | 1018.8 hPa | 0 mm | - | 0 W/m² | - |
| 1777661103 | 14.44° C | 91% | 1018.9 hPa | 1.52 mm | - | 11 W/m² | - |
| 1777660203 | 14.44° C | 90% | 1018.9 hPa | 2.03 mm | - | 12 W/m² | - |
* Rain latest hour (hover to see other rain measurements)
** Current wind speed in m/s (hover to see current wind gust speed)